createdAt,value
2019-03-06T00:00:27.756Z,988.79
2019-03-06T00:01:27.749Z,988.74
2019-03-06T00:02:27.737Z,988.78
2019-03-06T00:03:27.723Z,988.77
2019-03-06T00:04:27.735Z,988.81
2019-03-06T00:05:27.710Z,988.78
2019-03-06T00:06:27.697Z,988.72
2019-03-06T00:07:27.682Z,988.68
2019-03-06T00:08:27.685Z,988.68
2019-03-06T00:09:27.686Z,988.68
2019-03-06T00:10:27.653Z,988.68
2019-03-06T00:11:27.641Z,988.65
2019-03-06T00:12:27.632Z,988.68
2019-03-06T00:13:27.620Z,988.62
2019-03-06T00:14:27.631Z,988.63
2019-03-06T00:15:27.600Z,988.57
2019-03-06T00:16:27.590Z,988.61
2019-03-06T00:17:27.580Z,988.60
2019-03-06T00:18:27.568Z,988.57
2019-03-06T00:19:27.707Z,988.57
2019-03-06T00:20:27.619Z,988.53
2019-03-06T00:21:27.540Z,988.52
2019-03-06T00:22:27.526Z,988.42
2019-03-06T00:23:27.524Z,988.47
2019-03-06T00:24:27.506Z,988.49
2019-03-06T00:25:27.518Z,988.50
2019-03-06T00:26:27.484Z,988.49
2019-03-06T00:27:27.473Z,988.35
2019-03-06T00:28:27.464Z,988.33
2019-03-06T00:29:27.453Z,988.36
2019-03-06T00:30:27.471Z,988.40
2019-03-06T00:31:27.446Z,988.40
2019-03-06T00:32:27.422Z,988.32
2019-03-06T00:33:27.411Z,988.38
2019-03-06T00:34:27.402Z,988.40
2019-03-06T00:35:27.414Z,988.38
2019-03-06T00:36:27.383Z,988.39
2019-03-06T00:37:27.380Z,988.27
2019-03-06T00:38:27.360Z,988.28
2019-03-06T00:39:27.352Z,988.35
2019-03-06T00:40:27.361Z,988.26
2019-03-06T00:41:27.327Z,988.29
2019-03-06T00:42:27.320Z,988.30
2019-03-06T00:43:27.308Z,988.29
2019-03-06T00:44:27.297Z,988.26
2019-03-06T00:45:27.312Z,988.31
2019-03-06T00:46:27.281Z,988.30
2019-03-06T00:47:27.266Z,988.29
2019-03-06T00:48:27.258Z,988.32
2019-03-06T00:49:27.254Z,988.26
2019-03-06T00:50:27.261Z,988.18
2019-03-06T00:51:27.224Z,988.24
2019-03-06T00:52:27.216Z,988.25
2019-03-06T00:53:27.205Z,988.36
2019-03-06T00:54:27.229Z,988.30
2019-03-06T00:55:27.204Z,988.21
2019-03-06T00:56:27.172Z,988.23
2019-03-06T00:57:27.161Z,988.29
2019-03-06T00:58:27.151Z,988.25
2019-03-06T00:59:27.141Z,988.21
2019-03-06T01:00:27.157Z,988.22
2019-03-06T01:01:27.121Z,988.24
2019-03-06T01:02:27.111Z,988.17
2019-03-06T01:03:27.099Z,988.18
2019-03-06T01:04:27.090Z,988.11
2019-03-06T01:05:27.102Z,988.12
2019-03-06T01:06:27.071Z,988.07
2019-03-06T01:07:27.059Z,988.15
2019-03-06T01:08:27.049Z,988.08
2019-03-06T01:09:27.036Z,988.12
2019-03-06T01:10:27.055Z,988.07
2019-03-06T01:11:27.016Z,988.11
2019-03-06T01:12:27.006Z,988.17
2019-03-06T01:13:26.997Z,988.20
2019-03-06T01:14:26.985Z,988.15
2019-03-06T01:15:26.981Z,988.13
2019-03-06T01:16:26.989Z,988.15
2019-03-06T01:17:26.958Z,988.16
2019-03-06T01:18:26.944Z,988.14
2019-03-06T01:19:26.935Z,988.17
2019-03-06T01:20:26.928Z,988.13
2019-03-06T01:21:26.936Z,988.15
2019-03-06T01:22:26.904Z,988.14
2019-03-06T01:23:26.900Z,988.08
2019-03-06T01:24:26.882Z,988.05
2019-03-06T01:25:26.871Z,988.10
2019-03-06T01:26:26.887Z,988.02
2019-03-06T01:27:26.854Z,988.03
2019-03-06T01:28:26.842Z,988.06
2019-03-06T01:29:26.837Z,988.02
2019-03-06T01:30:26.821Z,987.99
2019-03-06T01:31:26.830Z,987.98
2019-03-06T01:32:26.799Z,988.13
2019-03-06T01:33:26.789Z,987.95
2019-03-06T01:34:26.780Z,987.98
2019-03-06T01:35:26.776Z,987.99
2019-03-06T01:36:26.783Z,987.97
2019-03-06T01:37:26.746Z,987.96
2019-03-06T01:38:26.737Z,987.93
2019-03-06T01:39:26.725Z,987.89
2019-03-06T01:40:26.732Z,987.89
2019-03-06T01:41:47.724Z,987.91
2019-03-06T01:42:26.700Z,987.92
2019-03-06T01:43:26.682Z,987.85
2019-03-06T01:44:26.672Z,987.92
2019-03-06T01:45:26.662Z,987.83
2019-03-06T01:46:26.671Z,987.81
2019-03-06T01:47:26.642Z,987.80
2019-03-06T01:48:26.632Z,987.75
2019-03-06T01:49:26.621Z,987.74
2019-03-06T01:50:26.610Z,987.72
2019-03-06T01:51:26.622Z,987.67
2019-03-06T01:52:26.591Z,987.73
2019-03-06T01:53:26.577Z,987.64
2019-03-06T01:54:26.569Z,987.69
2019-03-06T01:55:26.558Z,987.68
2019-03-06T01:56:26.568Z,987.68
2019-03-06T01:57:26.536Z,987.69
2019-03-06T01:58:26.525Z,987.68
2019-03-06T01:59:26.515Z,987.58
2019-03-06T02:00:26.506Z,987.61
2019-03-06T02:01:26.514Z,987.62
2019-03-06T02:02:26.485Z,987.56
2019-03-06T02:03:26.475Z,987.51
2019-03-06T02:04:26.462Z,987.52
2019-03-06T02:05:26.452Z,987.54
2019-03-06T02:06:26.461Z,987.51
2019-03-06T02:07:26.433Z,987.45
2019-03-06T02:08:26.421Z,987.41
2019-03-06T02:09:26.416Z,987.38
2019-03-06T02:10:26.401Z,987.42
2019-03-06T02:11:26.418Z,987.43
2019-03-06T02:12:26.386Z,987.35
2019-03-06T02:13:26.372Z,987.40
2019-03-06T02:14:26.358Z,987.40
2019-03-06T02:15:26.346Z,987.35
2019-03-06T02:16:26.335Z,987.39
2019-03-06T02:17:26.349Z,987.43
2019-03-06T02:18:26.322Z,987.44
2019-03-06T02:19:26.313Z,987.42
2019-03-06T02:20:26.294Z,987.41
2019-03-06T02:21:26.285Z,987.47
2019-03-06T02:22:26.294Z,987.42
2019-03-06T02:23:26.263Z,987.42
2019-03-06T02:24:26.255Z,987.33
2019-03-06T02:25:26.244Z,987.40
2019-03-06T02:26:26.232Z,987.42
2019-03-06T02:27:26.243Z,987.39
2019-03-06T02:28:26.211Z,987.33
2019-03-06T02:29:26.199Z,987.30
2019-03-06T02:30:26.272Z,987.30
2019-03-06T02:31:26.180Z,987.30
2019-03-06T02:32:26.194Z,987.30
2019-03-06T02:33:26.163Z,987.20
2019-03-06T02:34:26.151Z,987.28
2019-03-06T02:35:26.157Z,987.18
2019-03-06T02:36:26.128Z,987.17
2019-03-06T02:37:26.145Z,987.11
2019-03-06T02:38:26.112Z,987.07
2019-03-06T02:39:26.099Z,987.13
2019-03-06T02:40:26.089Z,987.10
2019-03-06T02:41:26.078Z,987.08
2019-03-06T02:42:26.091Z,987.02
2019-03-06T02:43:26.059Z,986.94
2019-03-06T02:44:26.047Z,986.89
2019-03-06T02:45:26.041Z,986.86
2019-03-06T02:46:26.027Z,986.86
2019-03-06T02:47:26.036Z,986.79
2019-03-06T02:48:26.009Z,986.82
2019-03-06T02:49:25.994Z,986.86
2019-03-06T02:50:25.986Z,986.88
2019-03-06T02:51:25.975Z,986.81
2019-03-06T02:52:25.986Z,986.82
2019-03-06T02:53:25.964Z,986.78
2019-03-06T02:54:25.943Z,986.82
2019-03-06T02:55:25.932Z,986.81
2019-03-06T02:56:25.921Z,986.81
2019-03-06T02:57:25.937Z,986.85
2019-03-06T02:58:25.902Z,986.87
2019-03-06T02:59:25.908Z,986.87
2019-03-06T03:00:25.879Z,986.85
2019-03-06T03:01:25.873Z,986.85
2019-03-06T03:02:25.858Z,986.78
2019-03-06T03:03:25.870Z,986.76
2019-03-06T03:04:25.839Z,986.67
2019-03-06T03:05:25.827Z,986.77
2019-03-06T03:06:25.821Z,986.72
2019-03-06T03:07:25.812Z,986.64
2019-03-06T03:08:25.819Z,986.63
2019-03-06T03:09:25.787Z,986.66
2019-03-06T03:10:25.775Z,986.67
2019-03-06T03:11:25.770Z,986.70
2019-03-06T03:12:25.754Z,986.65
2019-03-06T03:13:25.769Z,986.60
2019-03-06T03:14:25.733Z,986.59
2019-03-06T03:15:25.722Z,986.57
2019-03-06T03:16:25.719Z,986.43
2019-03-06T03:17:25.703Z,986.44
2019-03-06T03:18:25.711Z,986.45
2019-03-06T03:19:25.698Z,986.48
2019-03-06T03:20:25.672Z,986.55
2019-03-06T03:21:27.043Z,986.53
2019-03-06T03:22:25.649Z,986.47
2019-03-06T03:23:25.662Z,986.41
2019-03-06T03:24:25.630Z,986.45
2019-03-06T03:25:25.621Z,986.39
2019-03-06T03:26:25.618Z,986.43
2019-03-06T03:27:25.594Z,986.40
2019-03-06T03:28:25.606Z,986.41
2019-03-06T03:29:25.613Z,986.43
2019-03-06T03:30:25.576Z,986.44
2019-03-06T03:31:25.554Z,986.39
2019-03-06T03:32:25.543Z,986.35
2019-03-06T03:33:25.554Z,986.35
2019-03-06T03:34:25.606Z,986.33
2019-03-06T03:35:25.520Z,986.29
2019-03-06T03:36:25.504Z,986.29
2019-03-06T03:37:25.513Z,986.33
2019-03-06T03:38:25.500Z,986.26
2019-03-06T03:39:25.473Z,986.25
2019-03-06T03:40:25.457Z,986.27
2019-03-06T03:41:25.447Z,986.35
2019-03-06T03:42:25.436Z,986.40
2019-03-06T03:43:25.451Z,986.34
2019-03-06T03:44:25.415Z,986.37
2019-03-06T03:45:25.404Z,986.33
2019-03-06T03:46:25.395Z,986.32
2019-03-06T03:47:25.388Z,986.28
2019-03-06T03:48:25.371Z,986.31
2019-03-06T03:49:27.802Z,986.32
2019-03-06T03:50:25.350Z,986.25
2019-03-06T03:51:25.342Z,986.32
2019-03-06T03:52:25.337Z,986.27
2019-03-06T03:53:25.320Z,986.30
2019-03-06T03:54:25.346Z,986.29
2019-03-06T03:55:25.328Z,986.22
2019-03-06T03:56:25.291Z,986.18
2019-03-06T03:57:25.279Z,986.19
2019-03-06T03:58:25.266Z,986.21
2019-03-06T03:59:25.287Z,986.27
2019-03-06T04:00:25.246Z,986.24
2019-03-06T04:01:25.238Z,986.26
2019-03-06T04:02:25.224Z,986.28
2019-03-06T04:03:25.300Z,986.26
2019-03-06T04:04:25.360Z,986.19
2019-03-06T04:05:25.196Z,986.17
2019-03-06T04:06:25.184Z,986.16
2019-03-06T04:07:25.174Z,986.06
2019-03-06T04:08:25.173Z,986.13
2019-03-06T04:09:25.200Z,986.02
2019-03-06T04:10:25.140Z,986.08
2019-03-06T04:11:25.132Z,986.01
2019-03-06T04:12:25.121Z,985.97
2019-03-06T04:13:25.113Z,986.00
2019-03-06T04:14:25.121Z,985.88
2019-03-06T04:15:25.182Z,985.93
2019-03-06T04:16:25.080Z,985.80
2019-03-06T04:17:25.066Z,985.79
2019-03-06T04:18:25.056Z,985.80
2019-03-06T04:19:25.073Z,985.77
2019-03-06T04:20:25.039Z,985.72
2019-03-06T04:21:25.041Z,985.72
2019-03-06T04:22:25.032Z,985.70
2019-03-06T04:23:25.005Z,985.72
2019-03-06T04:24:25.063Z,985.69
2019-03-06T04:25:24.990Z,985.66
2019-03-06T04:26:24.973Z,985.67
2019-03-06T04:27:24.967Z,985.70
2019-03-06T04:28:24.967Z,985.67
2019-03-06T04:29:24.964Z,985.70
2019-03-06T04:30:24.930Z,985.77
2019-03-06T04:31:24.919Z,985.81
2019-03-06T04:32:24.913Z,985.88
2019-03-06T04:33:24.900Z,985.82
2019-03-06T04:34:24.916Z,985.85
2019-03-06T04:35:24.923Z,985.83
2019-03-06T04:36:24.870Z,985.77
2019-03-06T04:37:24.855Z,985.82
2019-03-06T04:38:24.875Z,985.69
2019-03-06T04:39:24.863Z,985.80
2019-03-06T04:40:24.825Z,985.77
2019-03-06T04:41:24.813Z,985.79
2019-03-06T04:42:24.801Z,985.87
2019-03-06T04:43:24.794Z,985.90
2019-03-06T04:44:24.807Z,985.93
2019-03-06T04:45:24.773Z,985.95
2019-03-06T04:46:24.802Z,985.96
2019-03-06T04:47:24.749Z,985.93
2019-03-06T04:48:24.792Z,986.00
2019-03-06T04:49:24.730Z,985.92
2019-03-06T04:50:24.740Z,985.89
2019-03-06T04:51:24.708Z,985.91
2019-03-06T04:52:24.696Z,985.92
2019-03-06T04:53:24.687Z,985.94
2019-03-06T04:54:24.709Z,985.84
2019-03-06T04:55:24.905Z,985.73
2019-03-06T04:56:24.727Z,985.71
2019-03-06T04:57:24.645Z,985.74
2019-03-06T04:58:26.256Z,985.69
2019-03-06T04:59:24.625Z,985.73
2019-03-06T05:00:24.634Z,985.66
2019-03-06T05:01:24.603Z,985.71
2019-03-06T05:02:24.595Z,985.63
2019-03-06T05:03:24.581Z,985.60
2019-03-06T05:04:24.573Z,985.61
2019-03-06T05:05:24.580Z,985.49
2019-03-06T05:06:24.548Z,985.47
2019-03-06T05:07:24.540Z,985.40
2019-03-06T05:08:24.526Z,985.40
2019-03-06T05:09:24.517Z,985.36
2019-03-06T05:10:24.538Z,985.27
2019-03-06T05:11:24.498Z,985.29
2019-03-06T05:12:24.488Z,985.28
2019-03-06T05:13:25.329Z,985.31
2019-03-06T05:14:24.464Z,985.26
2019-03-06T05:15:24.475Z,985.31
2019-03-06T05:16:24.443Z,985.34
2019-03-06T05:17:24.432Z,985.35
2019-03-06T05:18:24.423Z,985.43
2019-03-06T05:19:24.415Z,985.33
2019-03-06T05:20:24.423Z,985.28
2019-03-06T05:21:24.391Z,985.28
2019-03-06T05:22:24.383Z,985.25
2019-03-06T05:23:24.368Z,985.28
2019-03-06T05:24:24.360Z,985.18
2019-03-06T05:25:24.379Z,985.23
2019-03-06T05:26:24.339Z,985.26
2019-03-06T05:27:24.326Z,985.19
2019-03-06T05:28:24.320Z,985.16
2019-03-06T05:29:24.307Z,985.20
2019-03-06T05:30:24.299Z,985.27
2019-03-06T05:31:24.309Z,985.33
2019-03-06T05:32:24.277Z,985.40
2019-03-06T05:33:24.272Z,985.43
2019-03-06T05:34:24.254Z,985.38
2019-03-06T05:35:24.241Z,985.31
2019-03-06T05:36:24.253Z,985.43
2019-03-06T05:37:24.247Z,985.46
2019-03-06T05:38:24.212Z,985.35
2019-03-06T05:39:24.201Z,985.30
2019-03-06T05:40:24.191Z,985.41
2019-03-06T05:41:24.202Z,985.25
2019-03-06T05:42:24.172Z,985.22
2019-03-06T05:43:24.159Z,985.23
2019-03-06T05:44:24.149Z,985.24
2019-03-06T05:45:24.138Z,985.25
2019-03-06T05:46:24.149Z,985.27
2019-03-06T05:47:24.116Z,985.21
2019-03-06T05:48:24.106Z,985.06
2019-03-06T05:49:24.101Z,985.16
2019-03-06T05:50:24.087Z,985.06
2019-03-06T05:51:24.096Z,985.02
2019-03-06T05:52:24.064Z,985.01
2019-03-06T05:53:24.056Z,984.99
2019-03-06T05:54:24.045Z,984.91
2019-03-06T05:55:24.034Z,984.90
2019-03-06T05:56:24.043Z,984.85
2019-03-06T05:57:24.010Z,984.91
2019-03-06T05:58:24.000Z,984.84
2019-03-06T05:59:23.990Z,984.80
2019-03-06T06:00:23.981Z,984.79
2019-03-06T06:01:23.999Z,984.78
2019-03-06T06:02:23.961Z,984.74
2019-03-06T06:03:23.947Z,984.71
2019-03-06T06:04:23.937Z,984.72
2019-03-06T06:05:23.928Z,984.74
2019-03-06T06:06:23.917Z,984.70
2019-03-06T06:07:23.932Z,984.73
2019-03-06T06:08:23.899Z,984.69
2019-03-06T06:09:23.885Z,984.63
2019-03-06T06:10:23.876Z,984.62
2019-03-06T06:11:23.864Z,984.60
2019-03-06T06:12:23.876Z,984.67
2019-03-06T06:13:23.844Z,984.59
2019-03-06T06:14:23.848Z,984.63
2019-03-06T06:15:23.823Z,984.54
2019-03-06T06:16:23.815Z,984.51
2019-03-06T06:17:23.826Z,984.51
2019-03-06T06:18:23.792Z,984.42
2019-03-06T06:19:23.781Z,984.47
2019-03-06T06:20:23.789Z,984.44
2019-03-06T06:21:23.760Z,984.40
2019-03-06T06:22:23.771Z,984.49
2019-03-06T06:23:23.743Z,984.40
2019-03-06T06:24:23.727Z,984.35
2019-03-06T06:25:23.720Z,984.41
2019-03-06T06:26:23.757Z,984.37
2019-03-06T06:27:23.718Z,984.40
2019-03-06T06:28:23.686Z,984.40
2019-03-06T06:29:23.675Z,984.36
2019-03-06T06:30:23.663Z,984.32
2019-03-06T06:31:23.654Z,984.23
2019-03-06T06:32:23.671Z,984.35
2019-03-06T06:33:23.643Z,984.26
2019-03-06T06:34:23.622Z,984.23
2019-03-06T06:35:23.614Z,984.28
2019-03-06T06:36:23.600Z,984.30
2019-03-06T06:37:23.613Z,984.33
2019-03-06T06:38:23.584Z,984.26
2019-03-06T06:39:23.577Z,984.24
2019-03-06T06:40:23.562Z,984.32
2019-03-06T06:41:23.551Z,984.27
2019-03-06T06:42:23.559Z,984.30
2019-03-06T06:43:23.528Z,984.20
2019-03-06T06:44:23.517Z,984.18
2019-03-06T06:45:23.506Z,984.15
2019-03-06T06:46:23.496Z,984.17
2019-03-06T06:47:23.507Z,984.10
2019-03-06T06:48:23.474Z,984.11
2019-03-06T06:49:23.462Z,984.12
2019-03-06T06:50:23.454Z,984.06
2019-03-06T06:51:23.467Z,984.05
2019-03-06T06:52:23.458Z,984.04
2019-03-06T06:53:23.427Z,984.00
2019-03-06T06:54:23.412Z,984.03
2019-03-06T06:55:23.401Z,984.07
2019-03-06T06:56:23.391Z,983.88
2019-03-06T06:57:23.399Z,983.89
2019-03-06T06:58:31.136Z,983.94
2019-03-06T06:59:24.355Z,983.96
2019-03-06T07:00:23.353Z,983.91
2019-03-06T07:01:23.344Z,983.83
2019-03-06T07:02:23.520Z,983.87
2019-03-06T07:03:23.318Z,983.79
2019-03-06T07:04:23.304Z,983.81
2019-03-06T07:05:23.296Z,983.83
2019-03-06T07:06:23.282Z,983.81
2019-03-06T07:07:23.297Z,983.81
2019-03-06T07:08:23.284Z,983.73
2019-03-06T07:09:23.253Z,983.69
2019-03-06T07:10:23.239Z,983.68
2019-03-06T07:11:23.229Z,983.74
2019-03-06T07:12:23.219Z,983.69
2019-03-06T07:13:23.230Z,983.65
2019-03-06T07:14:23.198Z,983.58
2019-03-06T07:15:23.190Z,983.74
2019-03-06T07:16:23.179Z,983.53
2019-03-06T07:17:23.166Z,983.51
2019-03-06T07:18:23.175Z,983.55
2019-03-06T07:19:23.144Z,983.54
2019-03-06T07:20:23.133Z,983.53
2019-03-06T07:21:23.124Z,983.51
2019-03-06T07:22:23.116Z,983.61
2019-03-06T07:23:23.126Z,983.49
2019-03-06T07:24:23.092Z,983.46
2019-03-06T07:25:23.085Z,983.40
2019-03-06T07:26:23.071Z,983.45
2019-03-06T07:27:23.060Z,983.27
2019-03-06T07:28:23.078Z,983.36
2019-03-06T07:29:23.038Z,983.21
2019-03-06T07:30:23.032Z,983.31
2019-03-06T07:31:23.018Z,983.35
2019-03-06T07:32:23.008Z,983.26
2019-03-06T07:33:23.019Z,983.25
2019-03-06T07:34:23.029Z,983.22
2019-03-06T07:35:22.977Z,983.25
2019-03-06T07:36:22.968Z,983.12
2019-03-06T07:37:28.741Z,983.32
2019-03-06T07:38:23.964Z,983.28
2019-03-06T07:39:22.940Z,983.23
2019-03-06T07:40:22.922Z,983.26
2019-03-06T07:41:22.918Z,983.27
2019-03-06T07:42:22.902Z,983.16
2019-03-06T07:43:22.927Z,983.22
2019-03-06T07:44:29.901Z,983.19
2019-03-06T07:45:23.869Z,983.15
2019-03-06T07:46:22.887Z,983.02
2019-03-06T07:47:22.848Z,983.17
2019-03-06T07:48:22.838Z,983.13
2019-03-06T07:49:22.848Z,983.16
2019-03-06T07:50:22.816Z,983.17
2019-03-06T07:51:22.849Z,983.12
2019-03-06T07:52:22.797Z,983.21
2019-03-06T07:53:22.787Z,983.21
2019-03-06T07:54:22.797Z,983.28
2019-03-06T07:55:22.766Z,983.21
2019-03-06T07:56:22.752Z,983.19
2019-03-06T07:57:22.743Z,983.24
2019-03-06T07:58:22.733Z,983.36
2019-03-06T07:59:22.745Z,983.20
2019-03-06T08:00:22.711Z,983.24
2019-03-06T08:01:22.703Z,983.16
2019-03-06T08:02:22.689Z,983.19
2019-03-06T08:03:22.678Z,983.19
2019-03-06T08:04:22.692Z,983.21
2019-03-06T08:05:22.659Z,983.14
2019-03-06T08:06:22.648Z,983.27
2019-03-06T08:07:22.639Z,983.20
2019-03-06T08:08:22.628Z,983.20
2019-03-06T08:09:22.638Z,983.05
2019-03-06T08:10:22.604Z,983.18
2019-03-06T08:11:22.594Z,983.25
2019-03-06T08:12:22.585Z,983.10
2019-03-06T08:13:22.572Z,983.09
2019-03-06T08:14:22.631Z,983.05
2019-03-06T08:15:22.555Z,983.07
2019-03-06T08:16:22.543Z,983.10
2019-03-06T08:17:22.533Z,983.05
2019-03-06T08:18:22.524Z,983.03
2019-03-06T08:19:22.512Z,983.08
2019-03-06T08:20:22.530Z,983.08
2019-03-06T08:21:22.492Z,983.13
2019-03-06T08:22:22.479Z,983.09
2019-03-06T08:23:22.468Z,983.02
2019-03-06T08:24:22.467Z,983.02
2019-03-06T08:25:22.470Z,982.93
2019-03-06T08:26:22.436Z,983.06
2019-03-06T08:27:22.427Z,983.00
2019-03-06T08:28:22.416Z,983.00
2019-03-06T08:29:22.407Z,982.88
2019-03-06T08:30:22.415Z,982.99
2019-03-06T08:31:22.394Z,982.93
2019-03-06T08:32:22.377Z,982.91
2019-03-06T08:33:22.362Z,982.78
2019-03-06T08:34:22.360Z,982.94
2019-03-06T08:35:22.366Z,982.88
2019-03-06T08:36:22.330Z,982.82
2019-03-06T08:37:22.320Z,982.68
2019-03-06T08:38:22.311Z,982.79
2019-03-06T08:39:22.302Z,982.85
2019-03-06T08:40:22.311Z,982.92
2019-03-06T08:41:22.281Z,982.80
2019-03-06T08:42:22.267Z,982.90
2019-03-06T08:43:22.257Z,982.80
2019-03-06T08:44:22.245Z,982.75
2019-03-06T08:45:22.269Z,982.72
2019-03-06T08:46:22.228Z,982.61
2019-03-06T08:47:22.214Z,982.63
2019-03-06T08:48:22.207Z,982.45
2019-03-06T08:49:22.195Z,982.55
2019-03-06T08:50:22.183Z,982.71
2019-03-06T08:51:22.193Z,982.64
2019-03-06T08:52:22.162Z,982.66
2019-03-06T08:53:22.151Z,982.73
2019-03-06T08:54:22.145Z,982.65
2019-03-06T08:55:22.129Z,982.60
2019-03-06T08:56:22.142Z,982.56
2019-03-06T08:57:22.113Z,982.74
2019-03-06T08:58:22.101Z,982.74
2019-03-06T08:59:22.091Z,982.59
2019-03-06T09:00:22.079Z,982.60
2019-03-06T09:01:22.089Z,982.66
2019-03-06T09:02:22.064Z,982.52
2019-03-06T09:03:22.045Z,982.63
2019-03-06T09:04:22.037Z,982.59
2019-03-06T09:05:22.025Z,982.62
2019-03-06T09:06:22.042Z,982.58
2019-03-06T09:07:22.007Z,982.60
2019-03-06T09:08:21.996Z,982.64
2019-03-06T09:09:21.983Z,982.61
2019-03-06T09:10:21.974Z,982.57
2019-03-06T09:11:21.985Z,982.49
2019-03-06T09:12:21.951Z,982.55
2019-03-06T09:13:21.940Z,982.42
2019-03-06T09:14:21.931Z,982.39
2019-03-06T09:15:23.800Z,982.38
2019-03-06T09:16:21.931Z,982.42
2019-03-06T09:17:21.899Z,982.53
2019-03-06T09:18:21.890Z,982.43
2019-03-06T09:19:21.879Z,982.39
2019-03-06T09:20:21.869Z,982.36
2019-03-06T09:21:21.880Z,982.42
2019-03-06T09:22:21.849Z,982.32
2019-03-06T09:23:23.439Z,982.39
2019-03-06T09:24:21.827Z,982.29
2019-03-06T09:25:21.820Z,982.36
2019-03-06T09:26:21.827Z,982.25
2019-03-06T09:27:21.794Z,982.17
2019-03-06T09:28:21.784Z,982.16
2019-03-06T09:29:21.774Z,982.16
2019-03-06T09:30:21.779Z,982.22
2019-03-06T09:31:21.790Z,982.14
2019-03-06T09:32:21.742Z,982.20
2019-03-06T09:33:21.733Z,982.08
2019-03-06T09:34:21.724Z,981.97
2019-03-06T09:35:21.713Z,982.05
2019-03-06T09:36:21.732Z,982.02
2019-03-06T09:37:21.689Z,981.93
2019-03-06T09:38:21.679Z,981.88
2019-03-06T09:39:21.674Z,981.95
2019-03-06T09:40:21.661Z,981.96
2019-03-06T09:41:21.648Z,981.84
2019-03-06T09:42:21.660Z,981.74
2019-03-06T09:43:21.627Z,981.81
2019-03-06T09:44:21.616Z,981.74
2019-03-06T09:45:21.608Z,981.70
2019-03-06T09:46:21.596Z,981.66
2019-03-06T09:47:21.606Z,981.59
2019-03-06T09:48:21.579Z,981.54
2019-03-06T09:49:21.565Z,981.59
2019-03-06T09:50:21.553Z,981.56
2019-03-06T09:51:21.549Z,981.54
2019-03-06T09:52:21.559Z,981.57
2019-03-06T09:53:21.523Z,981.46
2019-03-06T09:54:21.514Z,981.48
2019-03-06T09:55:21.500Z,981.42
2019-03-06T09:56:21.490Z,981.36
2019-03-06T09:57:21.502Z,981.33
2019-03-06T09:58:21.469Z,981.30
2019-03-06T09:59:21.463Z,981.31
2019-03-06T10:00:21.449Z,981.17
2019-03-06T10:01:21.439Z,981.15
2019-03-06T10:02:21.449Z,981.11
2019-03-06T10:03:21.417Z,981.14
2019-03-06T10:04:21.407Z,981.19
2019-03-06T10:05:21.401Z,981.16
2019-03-06T10:06:21.385Z,981.13
2019-03-06T10:07:21.405Z,981.08
2019-03-06T10:08:21.361Z,981.02
2019-03-06T10:09:21.353Z,981.18
2019-03-06T10:10:21.348Z,981.17
2019-03-06T10:11:21.330Z,981.11
2019-03-06T10:12:21.320Z,981.08
2019-03-06T10:13:21.329Z,981.15
2019-03-06T10:14:21.299Z,981.18
2019-03-06T10:15:21.288Z,981.27
2019-03-06T10:16:23.183Z,981.26
2019-03-06T10:17:21.271Z,981.33
2019-03-06T10:18:21.279Z,981.37
2019-03-06T10:19:21.246Z,981.41
2019-03-06T10:20:25.017Z,981.37
2019-03-06T10:21:21.225Z,981.38
2019-03-06T10:22:21.214Z,981.23
2019-03-06T10:23:21.238Z,981.26
2019-03-06T10:24:21.192Z,981.40
2019-03-06T10:25:29.799Z,981.41
2019-03-06T10:26:22.170Z,981.45
2019-03-06T10:27:21.164Z,981.31
2019-03-06T10:28:27.780Z,981.33
2019-03-06T10:29:22.145Z,981.37
2019-03-06T10:30:21.129Z,981.32
2019-03-06T10:31:21.120Z,981.32
2019-03-06T10:32:21.111Z,981.26
2019-03-06T10:33:21.118Z,981.23
2019-03-06T10:34:21.088Z,981.26
2019-03-06T10:35:21.076Z,981.23
2019-03-06T10:36:21.069Z,981.22
2019-03-06T10:37:21.060Z,981.25
2019-03-06T10:38:21.066Z,981.17
2019-03-06T10:39:21.032Z,981.18
2019-03-06T10:40:21.024Z,981.16
2019-03-06T10:41:21.012Z,981.15
2019-03-06T10:42:21.000Z,981.21
2019-03-06T10:43:20.991Z,981.10
2019-03-06T10:44:28.815Z,981.12
2019-03-06T10:45:21.970Z,981.05
2019-03-06T10:46:20.962Z,981.07
2019-03-06T10:47:20.948Z,981.11
2019-03-06T10:48:20.937Z,981.11
2019-03-06T10:49:20.951Z,981.17
2019-03-06T10:50:26.648Z,981.07
2019-03-06T10:51:21.908Z,981.10
2019-03-06T10:52:20.896Z,981.13
2019-03-06T10:53:20.885Z,981.06
2019-03-06T10:54:20.901Z,981.13
2019-03-06T10:55:20.863Z,981.13
2019-03-06T10:56:20.853Z,981.04
2019-03-06T10:57:20.843Z,981.01
2019-03-06T10:58:20.831Z,980.96
2019-03-06T10:59:20.844Z,981.02
2019-03-06T11:00:20.810Z,980.93
2019-03-06T11:01:20.799Z,981.00
2019-03-06T11:02:20.792Z,980.91
2019-03-06T11:03:20.779Z,981.01
2019-03-06T11:04:20.786Z,980.90
2019-03-06T11:05:20.757Z,980.91
2019-03-06T11:06:20.745Z,980.94
2019-03-06T11:07:20.734Z,980.78
2019-03-06T11:08:20.726Z,981.02
2019-03-06T11:09:20.740Z,981.03
2019-03-06T11:10:24.037Z,980.90
2019-03-06T11:11:21.693Z,980.94
2019-03-06T11:12:20.681Z,980.93
2019-03-06T11:13:20.676Z,980.99
2019-03-06T11:14:20.690Z,980.97
2019-03-06T11:15:20.649Z,981.04
2019-03-06T11:16:20.638Z,980.99
2019-03-06T11:17:20.627Z,980.98
2019-03-06T11:18:20.622Z,980.95
2019-03-06T11:19:20.644Z,980.97
2019-03-06T11:20:20.598Z,980.95
2019-03-06T11:21:20.587Z,980.85
2019-03-06T11:22:20.575Z,980.82
2019-03-06T11:23:20.565Z,980.85
2019-03-06T11:24:20.600Z,980.82
2019-03-06T11:25:20.568Z,980.78
2019-03-06T11:26:20.534Z,980.78
2019-03-06T11:27:20.523Z,980.73
2019-03-06T11:28:20.516Z,980.63
2019-03-06T11:29:20.508Z,980.59
2019-03-06T11:30:20.510Z,980.60
2019-03-06T11:31:20.479Z,980.57
2019-03-06T11:32:20.471Z,980.54
2019-03-06T11:33:20.534Z,980.49
2019-03-06T11:34:20.448Z,980.45
2019-03-06T11:35:20.462Z,980.49
2019-03-06T11:36:20.428Z,980.53
2019-03-06T11:37:20.419Z,980.54
2019-03-06T11:38:20.414Z,980.54
2019-03-06T11:39:20.399Z,980.45
2019-03-06T11:40:20.406Z,980.54
2019-03-06T11:41:20.386Z,980.53
2019-03-06T11:42:20.366Z,980.50
2019-03-06T11:43:20.361Z,980.49
2019-03-06T11:44:20.344Z,980.40
2019-03-06T11:45:20.357Z,980.36
2019-03-06T11:46:20.322Z,980.37
2019-03-06T11:47:20.314Z,980.41
2019-03-06T11:48:20.314Z,980.39
2019-03-06T11:49:20.293Z,980.29
2019-03-06T11:50:20.301Z,980.21
2019-03-06T11:51:20.269Z,980.29
2019-03-06T11:52:20.258Z,980.42
2019-03-06T11:53:20.250Z,980.17
2019-03-06T11:54:20.236Z,980.22
2019-03-06T11:55:20.251Z,980.06
2019-03-06T11:56:20.216Z,980.12
2019-03-06T11:57:20.216Z,980.04
2019-03-06T11:58:20.194Z,979.98
2019-03-06T11:59:20.185Z,979.98
2019-03-06T12:00:20.203Z,979.94
2019-03-06T12:01:20.164Z,979.97
2019-03-06T12:02:20.152Z,979.96
2019-03-06T12:03:20.140Z,979.97
2019-03-06T12:04:20.132Z,979.93
2019-03-06T12:05:22.225Z,979.80
2019-03-06T12:06:20.111Z,979.99
2019-03-06T12:07:20.101Z,979.96
2019-03-06T12:08:20.091Z,979.89
2019-03-06T12:09:20.078Z,979.91
2019-03-06T12:10:20.088Z,979.78
2019-03-06T12:11:20.056Z,979.75
2019-03-06T12:12:20.050Z,979.76
2019-03-06T12:13:20.037Z,979.81
2019-03-06T12:14:20.027Z,979.73
2019-03-06T12:15:20.043Z,979.70
2019-03-06T12:16:20.004Z,979.62
2019-03-06T12:17:19.992Z,979.60
2019-03-06T12:18:19.981Z,979.58
2019-03-06T12:19:19.972Z,979.60
2019-03-06T12:20:19.963Z,979.72
2019-03-06T12:21:19.971Z,979.76
2019-03-06T12:22:19.942Z,979.71
2019-03-06T12:23:19.931Z,979.61
2019-03-06T12:24:19.920Z,979.67
2019-03-06T12:25:19.911Z,979.67
2019-03-06T12:26:19.920Z,979.63
2019-03-06T12:27:19.890Z,979.52
2019-03-06T12:28:19.875Z,979.59